Time;durP1;ratioP1;P1;durP2;ratioP2;P2;SDS_P1;SDS_P2;PMS_P1;PMS_P2;Temp;Humidity;BMP_temperature;BMP_pressure;BME280_temperature;BME280_humidity;BME280_pressure;Samples;Min_cycle;Max_cycle;Signal;HPM_P1;HPM_P2
2021/08/31 00:01:25;;;;;;;;;;;15.80;99.90;;;;;;4974630;28;20069;-87
2021/08/31 00:03:53;;;;;;;10.15;3.17;;;15.80;99.90;;;;;;4985503;28;19918;-87
2021/08/31 00:06:23;;;;;;;10.13;3.38;;;15.80;99.90;;;;;;5007402;28;20060;-86
2021/08/31 00:08:51;;;;;;;12.27;4.38;;;15.80;99.90;;;;;;5000913;28;20053;-86
2021/08/31 00:11:21;;;;;;;12.98;3.10;;;15.80;99.90;;;;;;5002610;28;20069;-86
2021/08/31 00:13:51;;;;;;;13.57;3.17;;;15.60;99.90;;;;;;4995089;28;20045;-86
2021/08/31 00:16:21;;;;;;;13.55;3.88;;;15.70;99.90;;;;;;5016712;28;20064;-88
2021/08/31 00:18:49;;;;;;;17.95;6.25;;;15.70;99.90;;;;;;4997932;28;20362;-88
2021/08/31 00:21:18;;;;;;;9.70;3.08;;;15.70;99.90;;;;;;5022329;28;20052;-85
2021/08/31 00:23:46;;;;;;;23.52;4.47;;;15.70;99.90;;;;;;5004703;28;20064;-87
2021/08/31 00:26:14;;;;;;;9.02;3.05;;;15.70;99.90;;;;;;5010223;28;20053;-86
2021/08/31 00:28:44;;;;;;;10.90;3.45;;;15.70;99.90;;;;;;4982401;28;20060;-88
2021/08/31 00:31:17;;;;;;;12.30;4.55;;;15.70;99.90;;;;;;4995903;28;20057;-85
2021/08/31 00:33:46;;;;;;;12.85;3.60;;;15.70;99.90;;;;;;5008062;28;20046;-87
2021/08/31 00:36:16;;;;;;;16.70;5.43;;;15.70;99.90;;;;;;4988510;28;20058;-87
2021/08/31 00:38:44;;;;;;;12.32;3.03;;;15.70;99.90;;;;;;5010203;28;20042;-87
2021/08/31 00:41:13;;;;;;;18.25;5.10;;;15.60;99.90;;;;;;4970837;28;20058;-88
2021/08/31 00:43:43;;;;;;;17.58;5.93;;;15.60;99.90;;;;;;5017701;28;20050;-86
2021/08/31 00:46:14;;;;;;;16.17;3.92;;;15.60;99.90;;;;;;4999506;28;20656;-87
2021/08/31 00:48:46;;;;;;;14.95;3.67;;;15.60;99.90;;;;;;4995755;28;20046;-87
2021/08/31 00:51:17;;;;;;;19.48;3.88;;;15.60;99.90;;;;;;4980515;28;20046;-86
2021/08/31 00:53:49;;;;;;;11.88;3.88;;;15.70;99.90;;;;;;5023883;28;20052;-87
2021/08/31 00:56:17;;;;;;;21.90;4.00;;;15.60;99.90;;;;;;5002856;28;20045;-87
2021/08/31 00:58:46;;;;;;;27.70;4.72;;;15.60;99.90;;;;;;5012736;28;20065;-87
2021/08/31 01:01:14;;;;;;;14.60;3.60;;;15.60;99.90;;;;;;4998477;28;20049;-86
2021/08/31 01:03:44;;;;;;;12.93;3.92;;;15.60;99.90;;;;;;5010051;28;20046;-87
2021/08/31 01:06:14;;;;;;;15.80;4.32;;;15.60;99.90;;;;;;4991447;28;20055;-86
2021/08/31 01:08:44;;;;;;;22.40;5.53;;;15.60;99.90;;;;;;4983173;28;20042;-87
2021/08/31 01:11:12;;;;;;;13.98;3.95;;;15.60;99.90;;;;;;4986904;28;20057;-86
2021/08/31 01:13:42;;;;;;;18.67;5.28;;;15.60;99.90;;;;;;5000667;28;20039;-86
2021/08/31 01:16:11;;;;;;;24.38;7.68;;;15.60;99.90;;;;;;5002603;28;20054;-88
2021/08/31 01:18:39;;;;;;;15.57;4.00;;;15.60;99.90;;;;;;4987424;28;20065;-87
2021/08/31 01:21:11;;;;;;;17.13;4.57;;;15.60;99.90;;;;;;5003477;28;20051;-86
2021/08/31 01:23:39;;;;;;;18.10;4.50;;;15.60;99.90;;;;;;5001812;28;20038;-86
2021/08/31 01:26:07;;;;;;;22.17;4.63;;;15.60;99.90;;;;;;4980310;28;20046;-87
2021/08/31 01:28:35;;;;;;;12.18;3.30;;;15.60;99.90;;;;;;5013330;28;20046;-87
2021/08/31 01:31:04;;;;;;;22.52;4.45;;;15.60;99.90;;;;;;4962734;28;20406;-87
2021/08/31 01:33:34;;;;;;;17.35;4.40;;;15.60;99.90;;;;;;4984043;28;20069;-86
2021/08/31 01:36:23;;;;;;;19.35;4.60;;;15.60;99.90;;;;;;4979509;28;20049;-88
2021/08/31 01:38:58;;;;;;;14.30;6.43;;;15.60;99.90;;;;;;5010443;28;20046;-85
2021/08/31 01:41:28;;;;;;;13.10;4.35;;;15.60;99.90;;;;;;4980357;28;20051;-87
2021/08/31 01:43:58;;;;;;;15.23;6.18;;;15.50;99.90;;;;;;5002607;28;20038;-86
2021/08/31 01:46:26;;;;;;;21.30;4.45;;;15.50;99.90;;;;;;4992212;28;20049;-87
2021/08/31 01:48:56;;;;;;;19.77;4.45;;;15.50;99.90;;;;;;5016839;28;20651;-87
2021/08/31 01:51:26;;;;;;;14.93;4.28;;;15.50;99.90;;;;;;4996428;28;20053;-86
2021/08/31 01:53:54;;;;;;;15.85;4.40;;;15.50;99.90;;;;;;5018637;28;20054;-87
2021/08/31 01:56:25;;;;;;;27.85;4.03;;;15.40;99.90;;;;;;4967812;28;20069;-87
2021/08/31 01:58:53;;;;;;;18.83;6.78;;;15.50;99.90;;;;;;5003738;28;20690;-87
2021/08/31 02:01:21;;;;;;;19.92;4.05;;;15.50;99.90;;;;;;4990939;28;20502;-86
2021/08/31 02:03:50;;;;;;;9.57;3.47;;;15.50;99.90;;;;;;5021356;28;20060;-87
2021/08/31 02:06:19;;;;;;;16.75;5.28;;;15.50;99.90;;;;;;4991788;28;20050;-86
2021/08/31 02:08:49;;;;;;;16.80;5.82;;;15.50;99.90;;;;;;5004845;28;20061;-86
2021/08/31 02:11:20;;;;;;;13.13;4.00;;;15.50;99.90;;;;;;4999030;28;20624;-88
2021/08/31 02:13:48;;;;;;;19.52;5.25;;;15.50;99.90;;;;;;5002759;28;20054;-86
2021/08/31 02:16:19;;;;;;;22.60;5.93;;;15.50;99.90;;;;;;4966915;28;20053;-86
2021/08/31 02:19:15;;;;;;;22.15;5.45;;;15.50;99.90;;;;;;5010589;23;20361;31
2021/08/31 02:21:43;;;;;;;23.65;5.03;;;15.40;99.90;;;;;;4964654;28;20055;-88
2021/08/31 02:24:13;;;;;;;26.48;4.30;;;15.40;99.90;;;;;;4962485;28;20499;-87
2021/08/31 02:26:42;;;;;;;20.02;5.43;;;15.40;99.90;;;;;;4961707;28;20047;-86
2021/08/31 02:29:11;;;;;;;18.10;4.35;;;15.40;99.90;;;;;;4959766;29;20044;-87
2021/08/31 02:31:39;;;;;;;17.67;5.15;;;15.40;99.90;;;;;;4956918;28;20054;-85
2021/08/31 02:34:08;;;;;;;14.95;4.88;;;15.40;99.90;;;;;;4952798;28;20564;-86
2021/08/31 02:36:37;;;;;;;16.17;6.70;;;15.40;99.90;;;;;;4962414;28;20055;-86
2021/08/31 02:39:05;;;;;;;19.23;4.90;;;15.40;99.90;;;;;;4962882;28;20055;-85
2021/08/31 02:41:36;;;;;;;18.73;4.07;;;15.40;99.90;;;;;;4957571;28;20062;-86
2021/08/31 02:44:06;;;;;;;17.05;4.53;;;15.40;99.90;;;;;;4964350;28;20054;-87
2021/08/31 02:46:34;;;;;;;19.55;4.65;;;15.40;99.90;;;;;;4962742;28;20039;-86
2021/08/31 02:49:03;;;;;;;18.48;4.68;;;15.40;99.90;;;;;;4963240;28;20529;-85
2021/08/31 02:51:33;;;;;;;8.60;3.53;;;15.30;99.90;;;;;;4957975;28;20051;-86
2021/08/31 02:54:02;;;;;;;19.15;4.50;;;15.30;99.90;;;;;;4955435;28;20454;-85
2021/08/31 02:56:31;;;;;;;18.25;4.65;;;15.30;99.90;;;;;;4964736;28;20398;-86
2021/08/31 02:58:59;;;;;;;13.98;4.28;;;15.30;99.90;;;;;;4960955;28;20062;-86
2021/08/31 03:01:33;;;;;;;14.63;4.07;;;15.30;99.90;;;;;;4961587;28;20043;-87
2021/08/31 03:04:03;;;;;;;17.40;5.18;;;15.30;99.90;;;;;;4962478;28;20055;-85
2021/08/31 03:06:33;;;;;;;15.25;5.80;;;15.30;99.90;;;;;;4962745;28;20058;-86
2021/08/31 03:09:03;;;;;;;13.02;4.47;;;15.30;99.90;;;;;;4962080;28;20046;-86
2021/08/31 03:11:31;;;;;;;13.85;4.18;;;15.30;99.90;;;;;;4957581;28;20051;-86
2021/08/31 03:14:00;;;;;;;15.43;4.50;;;15.30;99.90;;;;;;4964601;28;20054;-86
2021/08/31 03:16:27;;;;;;;14.27;4.45;;;15.30;99.90;;;;;;4945569;28;20063;-87
2021/08/31 03:18:58;;;;;;;11.80;4.53;;;15.20;99.90;;;;;;4947034;28;20616;-86
2021/08/31 03:21:30;;;;;;;16.23;5.55;;;15.30;99.90;;;;;;4965221;28;20792;-87
2021/08/31 03:23:58;;;;;;;16.50;5.15;;;15.20;99.90;;;;;;4980944;28;20050;-86
2021/08/31 03:26:27;;;;;;;19.48;4.30;;;15.20;99.90;;;;;;4973392;28;20050;-87
2021/08/31 03:28:57;;;;;;;17.35;4.28;;;15.20;99.90;;;;;;4979667;28;20058;-86
2021/08/31 03:31:28;;;;;;;18.23;5.25;;;15.20;99.90;;;;;;4980591;28;20370;-87
2021/08/31 03:33:56;;;;;;;12.00;3.95;;;15.20;99.90;;;;;;4997286;28;20061;-86
2021/08/31 03:36:25;;;;;;;11.10;4.45;;;15.20;99.90;;;;;;4983785;28;20062;-86
2021/08/31 03:39:01;;;;;;;22.30;4.78;;;15.20;99.90;;;;;;4961931;28;20046;-85
2021/08/31 03:41:29;;;;;;;10.50;4.40;;;15.20;99.90;;;;;;4980991;28;20039;-87
2021/08/31 03:44:00;;;;;;;18.58;4.90;;;15.20;99.90;;;;;;4995244;28;20042;-87
2021/08/31 03:46:33;;;;;;;14.07;5.38;;;15.20;99.90;;;;;;4966049;28;20458;-85
2021/08/31 03:49:01;;;;;;;15.40;4.03;;;15.20;99.90;;;;;;4980031;28;20403;-86
2021/08/31 03:51:32;;;;;;;20.75;5.55;;;15.20;99.90;;;;;;4978156;28;20490;-87
2021/08/31 03:54:00;;;;;;;12.35;4.45;;;15.20;99.90;;;;;;4964238;28;20054;-87
2021/08/31 03:56:29;;;;;;;15.18;4.53;;;15.20;99.90;;;;;;4995619;28;20058;-87
2021/08/31 03:58:57;;;;;;;21.50;4.75;;;15.20;99.90;;;;;;4979013;28;20055;-86
2021/08/31 04:01:25;;;;;;;15.40;4.60;;;15.20;99.90;;;;;;4948325;28;20047;-87
2021/08/31 04:03:55;;;;;;;20.42;5.65;;;15.20;99.90;;;;;;4964733;28;20047;-87
2021/08/31 04:06:23;;;;;;;19.92;5.95;;;15.20;99.90;;;;;;4979453;28;20070;-86
2021/08/31 04:08:51;;;;;;;15.77;5.97;;;15.20;99.90;;;;;;4979154;28;20053;-86
2021/08/31 04:11:21;;;;;;;10.95;5.22;;;15.20;99.90;;;;;;4978421;28;20051;-86
2021/08/31 04:13:49;;;;;;;17.77;4.35;;;15.20;99.90;;;;;;4986416;28;20501;-87
2021/08/31 04:16:17;;;;;;;17.02;6.38;;;15.20;99.90;;;;;;4977858;28;20039;-87
2021/08/31 04:18:50;;;;;;;19.90;4.53;;;15.20;99.90;;;;;;4980305;23;20557;-85
2021/08/31 04:21:19;;;;;;;17.70;5.13;;;15.10;99.90;;;;;;4973015;28;20051;-86
2021/08/31 04:23:47;;;;;;;16.02;4.82;;;15.10;99.90;;;;;;4972922;28;20053;-88
2021/08/31 04:26:20;;;;;;;14.43;4.40;;;15.10;99.90;;;;;;4972053;28;20046;-86
2021/08/31 04:28:47;;;;;;;18.25;4.88;;;15.10;99.90;;;;;;4982991;28;20042;-87
2021/08/31 04:31:15;;;;;;;20.45;5.22;;;15.10;99.90;;;;;;4950452;28;20059;-87
2021/08/31 04:33:46;;;;;;;20.60;5.97;;;15.10;99.90;;;;;;4962831;28;20050;-86
2021/08/31 04:36:14;;;;;;;15.30;5.47;;;15.20;99.90;;;;;;4969280;28;20062;-86
2021/08/31 04:38:42;;;;;;;20.42;6.22;;;15.10;99.90;;;;;;4980467;28;20047;-86
2021/08/31 04:41:11;;;;;;;20.80;4.97;;;15.10;99.90;;;;;;4992489;28;20034;-86
2021/08/31 04:43:42;;;;;;;18.02;5.40;;;15.10;99.90;;;;;;4992887;28;20054;-86
2021/08/31 04:46:11;;;;;;;15.82;6.03;;;15.10;99.90;;;;;;4982858;28;20061;-86
2021/08/31 04:48:40;;;;;;;16.30;4.90;;;15.10;99.90;;;;;;4944532;28;20057;-86
2021/08/31 04:51:09;;;;;;;12.98;5.63;;;15.10;99.90;;;;;;4980435;28;20044;-86
2021/08/31 04:53:37;;;;;;;18.88;5.50;;;15.00;99.90;;;;;;4963055;28;20055;-86
2021/08/31 04:56:07;;;;;;;19.92;7.20;;;15.10;99.90;;;;;;4978439;28;20046;-86
2021/08/31 04:58:37;;;;;;;15.10;5.30;;;15.10;99.90;;;;;;4961817;28;20059;-86
2021/08/31 05:01:05;;;;;;;13.85;4.93;;;15.00;99.90;;;;;;4961483;28;20043;-86
2021/08/31 05:03:36;;;;;;;19.20;4.68;;;15.00;99.90;;;;;;4960405;28;20058;-86
2021/08/31 05:06:15;;;;;;;12.57;3.90;;;14.80;99.90;;;;;;4977556;28;20050;-86
2021/08/31 05:08:43;;;;;;;18.73;5.25;;;15.00;99.90;;;;;;4942067;29;20479;-86
2021/08/31 05:11:12;;;;;;;14.43;4.88;;;15.00;99.90;;;;;;4962084;28;20523;-86
2021/08/31 05:13:42;;;;;;;15.52;4.75;;;15.00;99.90;;;;;;4966220;28;20042;-86
2021/08/31 05:16:12;;;;;;;14.38;4.38;;;15.00;99.90;;;;;;4962910;28;20054;-87
2021/08/31 05:18:42;;;;;;;11.73;5.10;;;15.10;99.90;;;;;;4943368;28;20055;-86
2021/08/31 05:21:10;;;;;;;15.80;4.70;;;15.10;99.90;;;;;;4965078;28;20046;-84
2021/08/31 05:23:39;;;;;;;13.90;7.55;;;15.10;99.90;;;;;;4964994;28;20058;-86
2021/08/31 05:26:06;;;;;;;20.83;5.45;;;15.10;99.90;;;;;;4962013;29;20063;-87
2021/08/31 05:28:37;;;;;;;24.02;6.05;;;14.30;99.90;;;;;;4979885;28;20057;-86
2021/08/31 05:31:06;;;;;;;22.55;6.57;;;15.20;99.90;;;;;;4949590;28;20043;-86
2021/08/31 05:33:34;;;;;;;23.83;5.88;;;15.10;99.90;;;;;;4962781;28;20051;-86
2021/08/31 05:36:05;;;;;;;19.27;6.03;;;15.10;99.90;;;;;;4964433;28;20055;-86
2021/08/31 05:38:33;;;;;;;21.15;6.30;;;15.10;99.90;;;;;;4981295;28;20271;-86
2021/08/31 05:41:03;;;;;;;11.40;4.38;;;16.60;99.90;;;;;;4965795;28;20058;-87
2021/08/31 05:43:31;;;;;;;23.48;9.15;;;15.10;99.90;;;;;;4969836;28;20813;-86
2021/08/31 05:45:59;;;;;;;15.18;6.65;;;15.10;99.90;;;;;;4956802;28;20411;-87
2021/08/31 05:48:30;;;;;;;14.30;5.28;;;15.10;99.90;;;;;;4978172;28;20078;-85
2021/08/31 05:50:58;;;;;;;16.48;6.15;;;15.10;99.90;;;;;;4952350;28;20047;-86
2021/08/31 05:53:27;;;;;;;21.20;6.22;;;15.10;99.90;;;;;;4964363;28;20363;-86
2021/08/31 05:55:56;;;;;;;13.00;5.20;;;15.10;99.90;;;;;;4945026;29;20051;-86
2021/08/31 05:58:24;;;;;;;12.98;5.55;;;15.10;99.90;;;;;;4977684;28;20058;-85
2021/08/31 06:00:52;;;;;;;9.57;5.82;;;15.10;99.90;;;;;;4964024;28;20066;-85
2021/08/31 06:03:21;;;;;;;14.68;7.35;;;15.10;99.90;;;;;;4981312;28;20054;-86
2021/08/31 06:05:55;;;;;;;15.43;6.25;;;15.10;99.90;;;;;;4944867;29;20059;-86
2021/08/31 06:08:30;;;;;;;15.50;5.47;;;15.10;99.90;;;;;;4950651;28;20058;-87
2021/08/31 06:11:00;;;;;;;17.73;4.22;;;15.10;99.90;;;;;;4973387;28;20066;-87
2021/08/31 06:13:28;;;;;;;21.67;4.78;;;15.10;99.90;;;;;;4979247;28;20059;-86
2021/08/31 06:15:59;;;;;;;15.30;6.15;;;15.20;99.90;;;;;;4979456;28;20382;-86
2021/08/31 06:18:32;;;;;;;11.75;5.50;;;15.20;99.90;;;;;;4950887;28;20047;-86
2021/08/31 06:21:01;;;;;;;19.17;5.65;;;15.20;99.90;;;;;;4962071;28;20054;-88
2021/08/31 06:23:29;;;;;;;11.73;4.63;;;15.20;99.90;;;;;;4945738;28;20058;-86
2021/08/31 06:25:57;;;;;;;16.15;5.55;;;15.20;99.90;;;;;;4979367;28;20050;-86
2021/08/31 06:28:26;;;;;;;14.40;4.53;;;15.20;99.90;;;;;;4953087;28;20050;-86
2021/08/31 06:30:54;;;;;;;11.52;4.43;;;15.20;99.90;;;;;;4984827;28;20422;-87
2021/08/31 06:33:25;;;;;;;19.73;6.47;;;15.20;99.90;;;;;;4961428;28;20050;-86
2021/08/31 06:35:57;;;;;;;17.83;4.55;;;15.30;99.90;;;;;;4958156;29;20055;-86
2021/08/31 06:38:27;;;;;;;18.00;6.25;;;15.30;99.90;;;;;;4942547;29;20054;-85
2021/08/31 06:40:59;;;;;;;12.95;4.80;;;15.30;99.90;;;;;;4931460;29;20058;-85
2021/08/31 06:43:29;;;;;;;31.42;6.13;;;15.30;99.90;;;;;;4969876;28;20046;-86
2021/08/31 06:45:57;;;;;;;21.63;4.63;;;15.30;99.90;;;;;;4945218;28;20054;-86
2021/08/31 06:48:26;;;;;;;16.73;4.55;;;15.40;99.90;;;;;;4970297;28;20043;-85
2021/08/31 06:50:56;;;;;;;14.90;4.63;;;15.40;99.90;;;;;;4950875;28;20058;-86
2021/08/31 06:53:26;;;;;;;14.15;5.53;;;15.40;99.90;;;;;;4961015;28;20493;-86
2021/08/31 06:55:55;;;;;;;19.10;5.63;;;15.40;99.90;;;;;;4944554;28;20046;-87
2021/08/31 06:58:35;;;;;;;16.90;6.53;;;15.50;99.90;;;;;;4963355;29;20054;-87
2021/08/31 07:01:09;;;;;;;18.73;4.57;;;15.50;99.90;;;;;;4941772;29;20565;-84
2021/08/31 07:03:46;;;;;;;16.75;7.03;;;15.50;99.90;;;;;;4968026;28;20316;-92
2021/08/31 07:06:20;;;;;;;;;;;15.50;99.90;;;;;;4957995;28;20069;-90
2021/08/31 07:08:55;;;;;;;20.17;5.75;;;15.50;99.90;;;;;;4995288;28;19924;-91
2021/08/31 07:11:30;;;;;;;13.27;5.15;;;15.50;99.90;;;;;;4988382;28;20059;-92
2021/08/31 07:14:01;;;;;;;17.20;4.90;;;15.50;99.90;;;;;;4968765;28;20061;-92
2021/08/31 07:16:32;;;;;;;15.13;4.68;;;15.60;99.90;;;;;;4927301;28;20058;-90
2021/08/31 07:19:27;;;;;;;17.10;5.72;;;15.60;99.90;;;;;;4988029;28;20054;-90
2021/08/31 07:22:06;;;;;;;19.77;5.10;;;15.70;99.90;;;;;;4952337;28;20147;-91
2021/08/31 07:24:40;;;;;;;15.77;5.80;;;15.70;99.90;;;;;;4967613;28;20588;-91
2021/08/31 07:27:10;;;;;;;19.17;5.63;;;15.70;99.90;;;;;;4944595;28;20054;-91
2021/08/31 07:29:51;;;;;;;25.27;6.15;;;15.70;99.90;;;;;;4950657;28;20057;-90
2021/08/31 07:32:44;;;;;;;14.43;5.70;;;15.80;99.90;;;;;;4970994;28;20055;-90
2021/08/31 07:35:24;;;;;;;12.80;4.30;;;15.70;99.90;;;;;;4963217;28;20058;-91
2021/08/31 07:38:15;;;;;;;11.93;5.07;;;15.80;99.90;;;;;;4966314;28;20054;-91
2021/08/31 07:41:03;;;;;;;12.20;4.22;;;15.80;99.90;;;;;;4951398;28;20050;-91
2021/08/31 07:43:38;;;;;;;17.17;5.63;;;15.80;99.90;;;;;;4980869;28;20050;-91
2021/08/31 07:46:10;;;;;;;16.87;5.27;;;15.90;99.90;;;;;;4951054;28;20065;-90
2021/08/31 07:48:44;;;;;;;20.25;5.15;;;15.90;99.90;;;;;;4982067;28;20042;-89
2021/08/31 07:51:33;;;;;;;11.05;4.57;;;15.90;99.90;;;;;;4983563;28;20049;-91
2021/08/31 07:54:15;;;;;;;17.25;5.68;;;15.90;99.90;;;;;;4953064;28;20070;-91
2021/08/31 07:56:54;;;;;;;22.50;4.93;;;16.00;99.90;;;;;;4953697;28;20053;-90
2021/08/31 07:59:42;;;;;;;11.38;3.85;;;16.00;99.90;;;;;;4961543;28;20047;-91
2021/08/31 08:02:34;;;;;;;11.13;4.40;;;16.00;99.90;;;;;;4941495;28;20046;-91
2021/08/31 08:05:10;;;;;;;7.65;3.70;;;16.10;99.90;;;;;;4972890;28;20050;-91
2021/08/31 08:07:42;;;;;;;7.80;4.30;;;16.10;99.90;;;;;;4957345;28;20135;-92
2021/08/31 08:10:25;;;;;;;8.13;3.78;;;16.10;99.90;;;;;;4968874;28;20043;-91
2021/08/31 08:17:22;;;;;;;13.02;2.92;;;16.20;99.90;;;;;;4966257;28;20051;-90
2021/08/31 08:20:08;;;;;;;7.68;3.28;;;16.20;99.90;;;;;;4975013;23;20058;-90
2021/08/31 08:22:40;;;;;;;5.53;2.88;;;16.30;99.90;;;;;;4972710;28;20027;-92
2021/08/31 08:25:28;;;;;;;10.15;3.28;;;16.40;99.90;;;;;;4951072;28;20046;-90
2021/08/31 08:28:23;;;;;;;10.52;3.42;;;16.50;99.90;;;;;;4953533;28;20061;-90
2021/08/31 08:30:54;;;;;;;15.00;4.15;;;16.60;99.90;;;;;;4948119;28;20059;-91
2021/08/31 08:33:26;;;;;;;;;;;16.60;99.90;;;;;;4966766;28;20046;-90
2021/08/31 08:35:55;;;;;;;7.90;3.00;;;16.70;99.90;;;;;;5002972;28;19925;-91
2021/08/31 08:38:26;;;;;;;7.28;3.05;;;16.70;99.90;;;;;;4965635;28;20059;-89
2021/08/31 08:41:07;;;;;;;15.77;4.90;;;16.70;99.90;;;;;;4962479;28;20475;-91
2021/08/31 08:43:40;;;;;;;6.95;3.60;;;16.90;99.90;;;;;;4950277;28;20051;-90
2021/08/31 08:46:18;;;;;;;10.80;4.28;;;16.90;99.90;;;;;;4971655;28;20049;-90
2021/08/31 08:49:01;;;;;;;7.60;3.58;;;16.90;99.90;;;;;;4983876;28;20054;-90
2021/08/31 08:51:29;;;;;;;6.65;3.50;;;17.00;99.90;;;;;;4950639;28;20047;-88
2021/08/31 08:54:07;;;;;;;11.75;4.28;;;17.00;99.90;;;;;;4952137;29;20049;-90
2021/08/31 08:56:40;;;;;;;13.77;4.78;;;17.10;99.90;;;;;;4938608;28;20618;-90
2021/08/31 08:59:13;;;;;;;16.70;5.55;;;17.10;99.90;;;;;;4969007;29;20051;-86
2021/08/31 09:01:53;;;;;;;17.92;5.25;;;17.10;99.90;;;;;;4919007;29;20890;-90
2021/08/31 09:04:42;;;;;;;16.95;4.47;;;17.10;99.90;;;;;;4948723;28;20051;-90
2021/08/31 09:07:25;;;;;;;11.88;3.80;;;17.20;99.90;;;;;;4962976;28;20058;-91
2021/08/31 09:10:20;;;;;;;14.73;4.22;;;17.20;99.90;;;;;;4918015;28;20347;-90
2021/08/31 09:12:54;;;;;;;15.90;4.07;;;17.30;99.90;;;;;;4938246;29;20059;-89
2021/08/31 09:15:24;;;;;;;13.07;4.22;;;16.40;99.90;;;;;;4931311;28;20479;-91
2021/08/31 09:18:10;;;;;;;21.20;4.60;;;17.50;99.90;;;;;;4964180;28;20051;-90
2021/08/31 09:20:47;;;;;;;11.65;4.07;;;17.50;99.90;;;;;;4937508;29;20058;-91
2021/08/31 09:23:22;;;;;;;12.47;3.90;;;17.60;99.90;;;;;;4929612;29;20056;-89
2021/08/31 09:26:37;;;;;;;9.55;3.30;;;17.70;99.90;;;;;;4935459;29;20524;-91
2021/08/31 09:29:15;;;;;;;15.50;3.50;;;17.70;99.90;;;;;;4912254;29;20055;-91
2021/08/31 09:31:57;;;;;;;11.60;3.53;;;17.80;99.90;;;;;;4934474;29;20059;-89
2021/08/31 09:34:49;;;;;;;13.63;4.57;;;17.80;99.90;;;;;;4937899;29;20070;-91
2021/08/31 09:38:00;;;;;;;9.43;3.15;;;17.90;99.90;;;;;;4969277;28;20048;-90
2021/08/31 09:40:32;;;;;;;16.25;4.10;;;17.90;99.90;;;;;;4946352;29;20057;-89
2021/08/31 09:43:21;;;;;;;16.38;3.20;;;18.00;99.90;;;;;;4925151;29;20040;-91
2021/08/31 09:45:57;;;;;;;14.05;3.50;;;18.10;99.90;;;;;;4938845;29;20043;-90
2021/08/31 09:48:41;;;;;;;7.13;3.08;;;18.10;99.90;;;;;;4945012;28;20053;-91
2021/08/31 09:51:14;;;;;;;7.63;3.45;;;18.20;99.90;;;;;;4923415;29;20059;-90
2021/08/31 09:53:43;;;;;;;19.77;4.93;;;18.20;99.90;;;;;;4925884;29;20128;-91
2021/08/31 09:56:13;;;;;;;15.57;3.33;;;18.30;99.90;;;;;;4949016;28;20603;-91
2021/08/31 09:58:46;;;;;;;17.25;4.50;;;18.30;99.90;;;;;;4934011;28;20043;-89
2021/08/31 10:01:15;;;;;;;15.45;4.72;;;18.40;99.90;;;;;;4967865;28;20078;-89
2021/08/31 10:03:44;;;;;;;12.13;4.35;;;18.40;99.90;;;;;;4931634;28;20043;-89
2021/08/31 10:06:13;;;;;;;7.30;2.50;;;18.60;99.90;;;;;;4960784;28;20047;-90
2021/08/31 10:08:42;;;;;;;8.63;4.30;;;18.60;99.90;;;;;;4934757;28;20048;-89
2021/08/31 10:11:17;;;;;;;10.50;3.22;;;18.60;99.90;;;;;;4910315;28;20042;-91
2021/08/31 10:13:46;;;;;;;10.75;2.88;;;18.70;99.90;;;;;;4944823;29;20074;-90
2021/08/31 10:16:16;;;;;;;8.30;3.22;;;18.80;99.90;;;;;;4930787;29;20054;-91
2021/08/31 10:18:50;;;;;;;10.13;2.92;;;18.90;99.90;;;;;;4935445;28;20062;-90
2021/08/31 10:21:19;;;;;;;7.90;3.03;;;19.00;99.90;;;;;;4958562;28;20049;-90
2021/08/31 10:23:52;;;;;;;9.80;2.88;;;19.10;99.90;;;;;;4966872;28;20050;-90
2021/08/31 10:26:37;;;;;;;8.77;2.72;;;19.10;99.90;;;;;;4930829;28;20454;-90
2021/08/31 10:29:17;;;;;;;9.38;4.43;;;19.20;99.90;;;;;;4981710;28;20051;-90
2021/08/31 10:31:48;;;;;;;12.50;3.50;;;19.20;99.90;;;;;;4954427;28;20039;-90
2021/08/31 10:34:38;;;;;;;15.30;3.67;;;19.30;99.90;;;;;;4981592;28;20043;-89
2021/08/31 10:37:14;;;;;;;;;;;19.40;99.90;;;;;;4956627;28;20050;-88
2021/08/31 10:39:56;;;;;;;13.05;3.00;;;19.60;99.90;;;;;;4959883;28;19933;-91
2021/08/31 10:42:28;;;;;;;8.55;3.20;;;19.70;99.90;;;;;;4948270;28;20067;-90
2021/08/31 10:45:30;;;;;;;9.07;3.35;;;19.70;99.90;;;;;;4966113;28;20054;-91
2021/08/31 10:48:26;;;;;;;14.00;3.30;;;19.70;99.90;;;;;;4928303;28;20047;-89
2021/08/31 10:51:04;;;;;;;19.50;4.72;;;19.70;99.90;;;;;;4963578;28;20058;-91
2021/08/31 10:53:48;;;;;;;14.98;4.25;;;19.70;99.90;;;;;;4937871;28;20054;-91
2021/08/31 10:59:01;;;;;;;10.52;2.97;;;19.80;99.90;;;;;;4974460;28;20569;-89
2021/08/31 11:01:41;;;;;;;12.73;3.83;;;19.80;99.90;;;;;;4964230;28;20070;-90
2021/08/31 11:04:33;;;;;;;10.02;3.53;;;19.90;99.90;;;;;;4950274;28;20066;-91
2021/08/31 11:07:26;;;;;;;15.13;4.07;;;20.00;99.90;;;;;;4934742;28;20423;-89
2021/08/31 11:09:58;;;;;;;9.23;3.38;;;20.00;99.90;;;;;;4921328;28;20051;-89
2021/08/31 11:12:28;;;;;;;12.18;3.63;;;20.00;99.90;;;;;;4961294;28;20069;-90
2021/08/31 11:14:58;;;;;;;19.60;5.35;;;19.90;99.90;;;;;;4961707;28;20047;-92
2021/08/31 11:17:38;;;;;;;11.20;3.67;;;19.90;99.90;;;;;;4951554;28;20434;-88
2021/08/31 11:20:41;;;;;;;8.88;3.35;;;19.90;99.90;;;;;;4946565;28;20387;-88
2021/08/31 11:23:19;;;;;;;9.98;3.42;;;19.90;99.90;;;;;;4950014;28;20054;-91
2021/08/31 11:25:55;;;;;;;11.18;3.65;;;19.90;99.90;;;;;;4949673;29;20053;-91
2021/08/31 11:28:26;;;;;;;14.82;4.03;;;19.90;99.90;;;;;;4960730;28;20051;-90
2021/08/31 11:31:03;;;;;;;8.02;3.33;;;19.90;99.90;;;;;;4938596;28;20046;-90
2021/08/31 11:33:38;;;;;;;8.00;2.80;;;19.90;99.90;;;;;;4976496;28;20062;-91
2021/08/31 11:36:17;;;;;;;11.02;4.53;;;19.90;99.70;;;;;;4969968;28;20477;-88
2021/08/31 11:38:52;;;;;;;14.25;3.67;;;19.90;99.70;;;;;;4947022;28;20061;-91
2021/08/31 11:41:27;;;;;;;10.77;4.05;;;19.90;99.90;;;;;;4977713;28;20054;-91
2021/08/31 11:44:17;;;;;;;8.98;3.38;;;19.80;99.50;;;;;;4950826;28;20062;-92
2021/08/31 11:46:51;;;;;;;12.98;3.95;;;19.80;99.40;;;;;;4949279;28;20585;-90
2021/08/31 11:49:27;;;;;;;9.68;3.35;;;19.60;99.60;;;;;;4962602;28;20169;-88
2021/08/31 11:52:16;;;;;;;12.35;2.92;;;19.20;99.80;;;;;;4980471;28;20046;-88
2021/08/31 11:54:50;;;;;;;11.05;3.47;;;19.70;99.50;;;;;;4974978;28;20482;-89
2021/08/31 11:57:21;;;;;;;15.68;3.72;;;19.80;99.70;;;;;;4956627;29;20078;-88
2021/08/31 11:59:54;;;;;;;15.25;4.28;;;19.80;99.60;;;;;;4945001;28;20053;-88
2021/08/31 12:02:41;;;;;;;13.82;3.60;;;19.80;99.40;;;;;;4950890;29;20051;-88
2021/08/31 12:05:11;;;;;;;10.15;3.45;;;19.80;99.10;;;;;;4944807;28;20053;-87
2021/08/31 12:07:43;;;;;;;11.20;3.47;;;19.90;99.30;;;;;;4964949;28;20043;-88
2021/08/31 12:10:14;;;;;;;9.70;3.50;;;19.90;99.10;;;;;;4948837;28;20035;-87
2021/08/31 12:12:43;;;;;;;14.38;3.70;;;20.00;98.90;;;;;;4964892;28;20058;-87
2021/08/31 12:15:13;;;;;;;12.68;3.80;;;20.00;98.90;;;;;;4961048;28;20054;-88
2021/08/31 12:18:06;;;;;;;9.77;3.17;;;20.20;98.90;;;;;;4963991;28;20050;-88
2021/08/31 12:20:36;;;;;;;12.38;3.72;;;20.30;98.00;;;;;;4964070;28;20047;-88
2021/08/31 12:23:06;;;;;;;15.45;3.65;;;20.30;98.40;;;;;;4945442;29;20043;-86
2021/08/31 12:25:48;;;;;;;14.75;3.72;;;20.60;98.20;;;;;;4977481;28;20043;-88
2021/08/31 12:28:21;;;;;;;13.90;3.67;;;20.80;97.70;;;;;;4949002;28;20058;-87
2021/08/31 12:30:52;;;;;;;10.73;3.80;;;20.90;97.90;;;;;;4971846;28;20062;-87
2021/08/31 12:33:30;;;;;;;13.18;3.00;;;21.10;97.70;;;;;;4960742;28;20055;-89
2021/08/31 12:36:07;;;;;;;12.18;3.10;;;21.30;97.20;;;;;;4980973;28;20039;-88
2021/08/31 12:38:44;;;;;;;10.00;3.50;;;21.50;97.20;;;;;;4993242;28;20075;-91
2021/08/31 12:41:23;;;;;;;7.60;3.15;;;21.60;97.00;;;;;;4957950;28;20049;-90
2021/08/31 12:43:58;;;;;;;10.20;3.40;;;21.60;97.10;;;;;;4956191;28;20043;-90
2021/08/31 12:46:34;;;;;;;9.63;2.85;;;21.60;96.70;;;;;;4991504;28;20042;-90
2021/08/31 12:49:11;;;;;;;16.48;3.35;;;21.60;96.60;;;;;;4970141;28;20061;-89
2021/08/31 12:51:54;;;;;;;12.55;5.10;;;21.50;96.40;;;;;;4987462;28;20039;-92
2021/08/31 12:54:37;;;;;;;12.27;3.53;;;21.40;96.30;;;;;;4967598;28;20055;-90
2021/08/31 12:57:25;;;;;;;15.43;3.10;;;21.30;96.60;;;;;;4947651;28;20047;-92
2021/08/31 13:00:24;;;;;;;13.48;3.88;;;21.20;96.50;;;;;;4966030;28;20043;-91
2021/08/31 13:02:59;;;;;;;13.93;3.70;;;21.10;96.40;;;;;;4995279;28;20485;-92
2021/08/31 13:05:36;;;;;;;12.55;3.33;;;21.10;96.60;;;;;;4968091;28;20042;-91
2021/08/31 13:08:19;;;;;;;10.13;3.60;;;21.10;96.50;;;;;;4994050;28;20046;-91
2021/08/31 13:10:47;;;;;;;9.63;3.03;;;21.20;96.40;;;;;;4999581;28;20078;-90
2021/08/31 13:13:32;;;;;;;13.38;3.03;;;21.20;96.20;;;;;;4990214;28;20054;-87
2021/08/31 13:16:02;;;;;;;11.90;3.08;;;21.20;95.80;;;;;;4986942;28;20031;-89
2021/08/31 13:18:31;;;;;;;9.95;2.97;;;21.20;96.20;;;;;;4969821;28;20051;-87